Terminal Aerodrome Forecast
Issued by NWS

Home | Current Version | Previous Version | Graphics & Text | Print | Product List | Glossary On
Versions: 1 2 3 4 5 6 7 8 9 10 11 12 13 14 15 16 17 18 19
000
FTUS41 KCLE 211100
TAFFDY
TAF
KFDY 211120Z 2112/2212 19005KT P6SM BKN250
     FM211700 22010G18KT P6SM SCT100 BKN200
     FM212300 24012G18KT P6SM BKN040 OVC100
     FM220400 24012KT 5SM -SHRA OVC025=

USA.gov is the U.S. government's official web portal to all federal, state and local government web resources and services.